sensor_id;sensor_type;location;lat;lon;timestamp;P1;durP1;ratioP1;P2;durP2;ratioP2
72369;SDS011;60343;-32.030;115.880;2023-08-06T00:00:18;7.70;;;1.17;;
72369;SDS011;60343;-32.030;115.880;2023-08-06T00:02:52;2.95;;;1.00;;
72369;SDS011;60343;-32.030;115.880;2023-08-06T00:05:33;2.53;;;0.80;;
72369;SDS011;60343;-32.030;115.880;2023-08-06T00:08:07;2.47;;;0.80;;
72369;SDS011;60343;-32.030;115.880;2023-08-06T00:10:42;3.72;;;1.20;;
72369;SDS011;60343;-32.030;115.880;2023-08-06T00:13:16;4.63;;;1.50;;
72369;SDS011;60343;-32.030;115.880;2023-08-06T00:15:51;3.28;;;1.23;;
72369;SDS011;60343;-32.030;115.880;2023-08-06T00:18:25;3.75;;;1.20;;
72369;SDS011;60343;-32.030;115.880;2023-08-06T00:21:09;4.35;;;1.35;;
72369;SDS011;60343;-32.030;115.880;2023-08-06T00:23:46;2.97;;;1.08;;
72369;SDS011;60343;-32.030;115.880;2023-08-06T00:26:20;4.07;;;1.20;;
72369;SDS011;60343;-32.030;115.880;2023-08-06T00:28:54;3.33;;;1.00;;
72369;SDS011;60343;-32.030;115.880;2023-08-06T00:31:29;3.67;;;1.15;;
72369;SDS011;60343;-32.030;115.880;2023-08-06T00:34:03;2.97;;;0.80;;
72369;SDS011;60343;-32.030;115.880;2023-08-06T00:36:43;3.85;;;0.57;;
72369;SDS011;60343;-32.030;115.880;2023-08-06T00:39:19;3.42;;;0.90;;
72369;SDS011;60343;-32.030;115.880;2023-08-06T00:41:54;2.97;;;0.50;;
72369;SDS011;60343;-32.030;115.880;2023-08-06T00:44:28;1.27;;;0.63;;
72369;SDS011;60343;-32.030;115.880;2023-08-06T00:47:03;1.60;;;0.70;;
72369;SDS011;60343;-32.030;115.880;2023-08-06T00:49:38;1.98;;;0.50;;
72369;SDS011;60343;-32.030;115.880;2023-08-06T00:52:19;2.22;;;0.47;;
72369;SDS011;60343;-32.030;115.880;2023-08-06T00:54:53;1.65;;;0.40;;
72369;SDS011;60343;-32.030;115.880;2023-08-06T00:57:28;2.97;;;0.50;;
72369;SDS011;60343;-32.030;115.880;2023-08-06T01:00:03;1.33;;;0.40;;
72369;SDS011;60343;-32.030;115.880;2023-08-06T01:02:38;1.30;;;0.30;;
72369;SDS011;60343;-32.030;115.880;2023-08-06T01:05:13;2.80;;;0.50;;
72369;SDS011;60343;-32.030;115.880;2023-08-06T01:07:56;2.17;;;0.40;;
72369;SDS011;60343;-32.030;115.880;2023-08-06T01:10:48;3.30;;;0.90;;
72369;SDS011;60343;-32.030;115.880;2023-08-06T01:13:32;2.05;;;0.63;;
72369;SDS011;60343;-32.030;115.880;2023-08-06T01:16:13;2.45;;;0.70;;
72369;SDS011;60343;-32.030;115.880;2023-08-06T01:18:50;1.67;;;0.60;;
72369;SDS011;60343;-32.030;115.880;2023-08-06T01:21:29;2.40;;;0.77;;
72369;SDS011;60343;-32.030;115.880;2023-08-06T01:24:04;1.30;;;0.50;;
72369;SDS011;60343;-32.030;115.880;2023-08-06T01:26:39;3.67;;;0.60;;
72369;SDS011;60343;-32.030;115.880;2023-08-06T01:29:19;2.60;;;0.50;;
72369;SDS011;60343;-32.030;115.880;2023-08-06T01:32:01;1.55;;;0.60;;
72369;SDS011;60343;-32.030;115.880;2023-08-06T01:34:36;1.83;;;0.60;;
72369;SDS011;60343;-32.030;115.880;2023-08-06T01:37:18;2.22;;;0.50;;
72369;SDS011;60343;-32.030;115.880;2023-08-06T01:39:53;1.75;;;0.60;;
72369;SDS011;60343;-32.030;115.880;2023-08-06T01:42:27;1.83;;;0.40;;
72369;SDS011;60343;-32.030;115.880;2023-08-06T01:45:02;3.78;;;0.70;;
72369;SDS011;60343;-32.030;115.880;2023-08-06T01:47:37;3.42;;;0.60;;
72369;SDS011;60343;-32.030;115.880;2023-08-06T01:50:12;1.85;;;0.57;;
72369;SDS011;60343;-32.030;115.880;2023-08-06T01:52:52;0.98;;;0.43;;
72369;SDS011;60343;-32.030;115.880;2023-08-06T01:55:26;1.95;;;0.50;;
72369;SDS011;60343;-32.030;115.880;2023-08-06T01:58:02;2.20;;;0.52;;
72369;SDS011;60343;-32.030;115.880;2023-08-06T02:00:37;1.92;;;0.70;;
72369;SDS011;60343;-32.030;115.880;2023-08-06T02:03:11;1.65;;;0.50;;
72369;SDS011;60343;-32.030;115.880;2023-08-06T02:05:46;2.42;;;0.60;;
72369;SDS011;60343;-32.030;115.880;2023-08-06T02:08:26;2.35;;;0.60;;
72369;SDS011;60343;-32.030;115.880;2023-08-06T02:11:01;2.33;;;0.50;;
72369;SDS011;60343;-32.030;115.880;2023-08-06T02:13:35;1.42;;;0.50;;
72369;SDS011;60343;-32.030;115.880;2023-08-06T02:16:10;1.83;;;0.60;;
72369;SDS011;60343;-32.030;115.880;2023-08-06T02:18:45;2.55;;;0.60;;
72369;SDS011;60343;-32.030;115.880;2023-08-06T02:21:19;1.98;;;0.60;;
72369;SDS011;60343;-32.030;115.880;2023-08-06T02:23:59;1.52;;;0.45;;
72369;SDS011;60343;-32.030;115.880;2023-08-06T02:26:34;2.85;;;0.63;;
72369;SDS011;60343;-32.030;115.880;2023-08-06T02:29:08;1.85;;;0.70;;
72369;SDS011;60343;-32.030;115.880;2023-08-06T02:31:42;2.78;;;0.80;;
72369;SDS011;60343;-32.030;115.880;2023-08-06T02:34:17;3.35;;;0.70;;
72369;SDS011;60343;-32.030;115.880;2023-08-06T02:36:51;2.10;;;0.35;;
72369;SDS011;60343;-32.030;115.880;2023-08-06T02:39:31;2.25;;;0.40;;
72369;SDS011;60343;-32.030;115.880;2023-08-06T02:42:06;1.45;;;0.60;;
72369;SDS011;60343;-32.030;115.880;2023-08-06T02:44:41;2.38;;;0.50;;
72369;SDS011;60343;-32.030;115.880;2023-08-06T02:47:15;1.42;;;0.70;;
72369;SDS011;60343;-32.030;115.880;2023-08-06T02:49:50;2.10;;;0.47;;
72369;SDS011;60343;-32.030;115.880;2023-08-06T02:52:25;1.58;;;0.60;;
72369;SDS011;60343;-32.030;115.880;2023-08-06T02:55:06;4.35;;;0.50;;
72369;SDS011;60343;-32.030;115.880;2023-08-06T02:57:40;2.25;;;0.43;;
72369;SDS011;60343;-32.030;115.880;2023-08-06T03:00:15;1.15;;;0.43;;
72369;SDS011;60343;-32.030;115.880;2023-08-06T03:02:49;1.40;;;0.50;;
72369;SDS011;60343;-32.030;115.880;2023-08-06T03:05:24;2.35;;;0.50;;
72369;SDS011;60343;-32.030;115.880;2023-08-06T03:07:58;1.83;;;0.55;;
72369;SDS011;60343;-32.030;115.880;2023-08-06T03:10:39;1.63;;;0.60;;
72369;SDS011;60343;-32.030;115.880;2023-08-06T03:13:13;1.95;;;0.60;;
72369;SDS011;60343;-32.030;115.880;2023-08-06T03:15:54;1.73;;;0.55;;
72369;SDS011;60343;-32.030;115.880;2023-08-06T03:18:30;2.38;;;0.60;;
72369;SDS011;60343;-32.030;115.880;2023-08-06T03:21:04;1.45;;;0.50;;
72369;SDS011;60343;-32.030;115.880;2023-08-06T03:23:39;2.03;;;0.40;;
72369;SDS011;60343;-32.030;115.880;2023-08-06T03:26:19;0.80;;;0.40;;
72369;SDS011;60343;-32.030;115.880;2023-08-06T03:28:53;2.72;;;0.57;;
72369;SDS011;60343;-32.030;115.880;2023-08-06T03:31:28;1.63;;;0.45;;
72369;SDS011;60343;-32.030;115.880;2023-08-06T03:34:03;2.17;;;0.40;;
72369;SDS011;60343;-32.030;115.880;2023-08-06T03:36:37;1.90;;;0.50;;
72369;SDS011;60343;-32.030;115.880;2023-08-06T03:39:11;1.50;;;0.50;;
72369;SDS011;60343;-32.030;115.880;2023-08-06T03:41:52;1.23;;;0.40;;
72369;SDS011;60343;-32.030;115.880;2023-08-06T03:44:29;2.42;;;0.85;;
72369;SDS011;60343;-32.030;115.880;2023-08-06T03:47:06;1.75;;;0.40;;
72369;SDS011;60343;-32.030;115.880;2023-08-06T03:49:41;1.42;;;0.52;;
72369;SDS011;60343;-32.030;115.880;2023-08-06T03:52:16;3.72;;;0.50;;
72369;SDS011;60343;-32.030;115.880;2023-08-06T03:54:50;3.05;;;0.60;;
72369;SDS011;60343;-32.030;115.880;2023-08-06T03:57:30;1.27;;;0.38;;
72369;SDS011;60343;-32.030;115.880;2023-08-06T04:00:05;1.48;;;0.43;;
72369;SDS011;60343;-32.030;115.880;2023-08-06T04:02:40;1.50;;;0.32;;
72369;SDS011;60343;-32.030;115.880;2023-08-06T04:05:15;1.52;;;0.43;;
72369;SDS011;60343;-32.030;115.880;2023-08-06T04:07:50;0.90;;;0.30;;
72369;SDS011;60343;-32.030;115.880;2023-08-06T04:10:26;1.52;;;0.50;;
72369;SDS011;60343;-32.030;115.880;2023-08-06T04:13:06;1.52;;;0.38;;
72369;SDS011;60343;-32.030;115.880;2023-08-06T04:15:40;1.67;;;0.45;;
72369;SDS011;60343;-32.030;115.880;2023-08-06T04:18:15;2.30;;;0.40;;
72369;SDS011;60343;-32.030;115.880;2023-08-06T04:20:50;1.30;;;0.30;;
72369;SDS011;60343;-32.030;115.880;2023-08-06T04:23:24;1.42;;;0.47;;
72369;SDS011;60343;-32.030;115.880;2023-08-06T04:25:59;2.65;;;0.30;;
72369;SDS011;60343;-32.030;115.880;2023-08-06T04:28:39;1.23;;;0.38;;
72369;SDS011;60343;-32.030;115.880;2023-08-06T04:31:13;2.13;;;0.50;;
72369;SDS011;60343;-32.030;115.880;2023-08-06T04:33:48;0.85;;;0.30;;
72369;SDS011;60343;-32.030;115.880;2023-08-06T04:36:22;1.50;;;0.45;;
72369;SDS011;60343;-32.030;115.880;2023-08-06T04:38:57;1.42;;;0.40;;
72369;SDS011;60343;-32.030;115.880;2023-08-06T04:41:31;1.50;;;0.60;;
72369;SDS011;60343;-32.030;115.880;2023-08-06T04:44:11;0.75;;;0.40;;
72369;SDS011;60343;-32.030;115.880;2023-08-06T04:46:46;0.80;;;0.30;;
72369;SDS011;60343;-32.030;115.880;2023-08-06T04:49:20;1.63;;;0.38;;
72369;SDS011;60343;-32.030;115.880;2023-08-06T04:51:55;2.33;;;0.40;;
72369;SDS011;60343;-32.030;115.880;2023-08-06T04:54:30;1.15;;;0.40;;
72369;SDS011;60343;-32.030;115.880;2023-08-06T04:57:04;1.88;;;0.50;;
72369;SDS011;60343;-32.030;115.880;2023-08-06T04:59:44;1.60;;;0.40;;
72369;SDS011;60343;-32.030;115.880;2023-08-06T05:02:19;1.55;;;0.50;;
72369;SDS011;60343;-32.030;115.880;2023-08-06T05:04:53;1.63;;;0.50;;
72369;SDS011;60343;-32.030;115.880;2023-08-06T05:07:28;1.38;;;0.70;;
72369;SDS011;60343;-32.030;115.880;2023-08-06T05:10:02;1.40;;;0.50;;
72369;SDS011;60343;-32.030;115.880;2023-08-06T05:12:37;1.25;;;0.40;;
72369;SDS011;60343;-32.030;115.880;2023-08-06T05:15:17;0.50;;;0.30;;
72369;SDS011;60343;-32.030;115.880;2023-08-06T05:17:52;1.00;;;0.40;;
72369;SDS011;60343;-32.030;115.880;2023-08-06T05:20:26;3.00;;;0.50;;
72369;SDS011;60343;-32.030;115.880;2023-08-06T05:23:01;2.22;;;0.60;;
72369;SDS011;60343;-32.030;115.880;2023-08-06T05:25:36;1.75;;;0.40;;
72369;SDS011;60343;-32.030;115.880;2023-08-06T05:28:10;1.48;;;0.40;;
72369;SDS011;60343;-32.030;115.880;2023-08-06T05:30:50;1.73;;;0.43;;
72369;SDS011;60343;-32.030;115.880;2023-08-06T05:33:24;1.10;;;0.30;;
72369;SDS011;60343;-32.030;115.880;2023-08-06T05:35:59;1.52;;;0.35;;
72369;SDS011;60343;-32.030;115.880;2023-08-06T05:38:34;1.60;;;0.38;;
72369;SDS011;60343;-32.030;115.880;2023-08-06T05:41:08;2.03;;;0.40;;
72369;SDS011;60343;-32.030;115.880;2023-08-06T05:43:42;1.15;;;0.25;;
72369;SDS011;60343;-32.030;115.880;2023-08-06T05:46:23;0.80;;;0.35;;
72369;SDS011;60343;-32.030;115.880;2023-08-06T05:48:57;2.05;;;0.40;;
72369;SDS011;60343;-32.030;115.880;2023-08-06T05:51:32;0.68;;;0.30;;
72369;SDS011;60343;-32.030;115.880;2023-08-06T05:54:06;0.80;;;0.38;;
72369;SDS011;60343;-32.030;115.880;2023-08-06T05:56:41;0.70;;;0.30;;
72369;SDS011;60343;-32.030;115.880;2023-08-06T05:59:16;1.98;;;0.45;;
72369;SDS011;60343;-32.030;115.880;2023-08-06T06:01:56;0.88;;;0.30;;
72369;SDS011;60343;-32.030;115.880;2023-08-06T06:04:30;1.83;;;0.45;;
72369;SDS011;60343;-32.030;115.880;2023-08-06T06:07:05;1.77;;;0.50;;
72369;SDS011;60343;-32.030;115.880;2023-08-06T06:09:40;2.05;;;0.52;;
72369;SDS011;60343;-32.030;115.880;2023-08-06T06:12:15;1.75;;;0.43;;
72369;SDS011;60343;-32.030;115.880;2023-08-06T06:14:52;1.98;;;0.50;;
72369;SDS011;60343;-32.030;115.880;2023-08-06T06:17:32;2.05;;;0.70;;
72369;SDS011;60343;-32.030;115.880;2023-08-06T06:20:07;1.65;;;0.73;;
72369;SDS011;60343;-32.030;115.880;2023-08-06T06:22:42;1.52;;;0.52;;
72369;SDS011;60343;-32.030;115.880;2023-08-06T06:25:17;1.50;;;0.50;;
72369;SDS011;60343;-32.030;115.880;2023-08-06T06:27:51;1.88;;;0.50;;
72369;SDS011;60343;-32.030;115.880;2023-08-06T06:30:26;1.75;;;0.30;;
72369;SDS011;60343;-32.030;115.880;2023-08-06T06:33:06;1.33;;;0.50;;
72369;SDS011;60343;-32.030;115.880;2023-08-06T06:35:41;1.88;;;0.45;;
72369;SDS011;60343;-32.030;115.880;2023-08-06T06:38:15;1.92;;;0.47;;
72369;SDS011;60343;-32.030;115.880;2023-08-06T06:40:54;3.58;;;0.55;;
72369;SDS011;60343;-32.030;115.880;2023-08-06T06:43:29;1.63;;;0.50;;
72369;SDS011;60343;-32.030;115.880;2023-08-06T06:46:04;1.55;;;0.50;;
72369;SDS011;60343;-32.030;115.880;2023-08-06T06:48:44;1.35;;;0.50;;
72369;SDS011;60343;-32.030;115.880;2023-08-06T06:51:19;1.05;;;0.47;;
72369;SDS011;60343;-32.030;115.880;2023-08-06T06:53:53;2.00;;;0.45;;
72369;SDS011;60343;-32.030;115.880;2023-08-06T06:56:28;1.50;;;0.50;;
72369;SDS011;60343;-32.030;115.880;2023-08-06T06:59:02;1.13;;;0.50;;
72369;SDS011;60343;-32.030;115.880;2023-08-06T07:01:37;1.35;;;0.50;;
72369;SDS011;60343;-32.030;115.880;2023-08-06T07:04:17;2.47;;;0.60;;
72369;SDS011;60343;-32.030;115.880;2023-08-06T07:06:51;1.75;;;0.50;;
72369;SDS011;60343;-32.030;115.880;2023-08-06T07:09:26;2.58;;;0.57;;
72369;SDS011;60343;-32.030;115.880;2023-08-06T07:12:00;2.10;;;0.60;;
72369;SDS011;60343;-32.030;115.880;2023-08-06T07:14:35;1.42;;;0.52;;
72369;SDS011;60343;-32.030;115.880;2023-08-06T07:17:09;2.08;;;0.60;;
72369;SDS011;60343;-32.030;115.880;2023-08-06T07:19:49;1.98;;;0.70;;
72369;SDS011;60343;-32.030;115.880;2023-08-06T07:22:24;1.17;;;0.50;;
72369;SDS011;60343;-32.030;115.880;2023-08-06T07:24:58;1.38;;;0.60;;
72369;SDS011;60343;-32.030;115.880;2023-08-06T07:27:33;2.20;;;0.70;;
72369;SDS011;60343;-32.030;115.880;2023-08-06T07:30:07;1.70;;;0.60;;
72369;SDS011;60343;-32.030;115.880;2023-08-06T07:32:42;1.67;;;0.70;;
72369;SDS011;60343;-32.030;115.880;2023-08-06T07:35:22;2.15;;;0.70;;
72369;SDS011;60343;-32.030;115.880;2023-08-06T07:37:57;2.38;;;0.60;;
72369;SDS011;60343;-32.030;115.880;2023-08-06T07:40:31;2.40;;;0.70;;
72369;SDS011;60343;-32.030;115.880;2023-08-06T07:43:08;2.50;;;1.00;;
72369;SDS011;60343;-32.030;115.880;2023-08-06T07:45:42;3.78;;;1.30;;
72369;SDS011;60343;-32.030;115.880;2023-08-06T07:48:17;2.28;;;0.93;;
72369;SDS011;60343;-32.030;115.880;2023-08-06T07:50:57;2.53;;;0.90;;
72369;SDS011;60343;-32.030;115.880;2023-08-06T07:53:32;4.65;;;1.30;;
72369;SDS011;60343;-32.030;115.880;2023-08-06T07:56:06;2.63;;;1.00;;
72369;SDS011;60343;-32.030;115.880;2023-08-06T07:58:41;2.85;;;0.90;;
72369;SDS011;60343;-32.030;115.880;2023-08-06T08:01:15;2.97;;;1.00;;
72369;SDS011;60343;-32.030;115.880;2023-08-06T08:03:50;2.83;;;1.15;;
72369;SDS011;60343;-32.030;115.880;2023-08-06T08:06:29;2.65;;;1.00;;
72369;SDS011;60343;-32.030;115.880;2023-08-06T08:09:04;3.05;;;0.95;;
72369;SDS011;60343;-32.030;115.880;2023-08-06T08:11:39;2.88;;;1.10;;
72369;SDS011;60343;-32.030;115.880;2023-08-06T08:14:14;3.10;;;1.13;;
72369;SDS011;60343;-32.030;115.880;2023-08-06T08:16:49;2.95;;;0.98;;
72369;SDS011;60343;-32.030;115.880;2023-08-06T08:19:25;3.15;;;1.05;;
72369;SDS011;60343;-32.030;115.880;2023-08-06T08:22:06;3.10;;;0.95;;
72369;SDS011;60343;-32.030;115.880;2023-08-06T08:24:40;2.10;;;0.68;;
72369;SDS011;60343;-32.030;115.880;2023-08-06T08:27:15;2.40;;;0.90;;
72369;SDS011;60343;-32.030;115.880;2023-08-06T08:29:49;2.47;;;0.80;;
72369;SDS011;60343;-32.030;115.880;2023-08-06T08:32:24;3.17;;;0.90;;
72369;SDS011;60343;-32.030;115.880;2023-08-06T08:34:59;3.28;;;1.00;;
72369;SDS011;60343;-32.030;115.880;2023-08-06T08:37:39;2.88;;;0.73;;
72369;SDS011;60343;-32.030;115.880;2023-08-06T08:40:14;2.25;;;0.93;;
72369;SDS011;60343;-32.030;115.880;2023-08-06T08:42:49;3.00;;;0.82;;
72369;SDS011;60343;-32.030;115.880;2023-08-06T08:45:24;3.10;;;0.80;;
72369;SDS011;60343;-32.030;115.880;2023-08-06T08:48:01;4.32;;;0.90;;
72369;SDS011;60343;-32.030;115.880;2023-08-06T08:50:36;4.57;;;1.30;;
72369;SDS011;60343;-32.030;115.880;2023-08-06T08:53:17;3.22;;;0.85;;
72369;SDS011;60343;-32.030;115.880;2023-08-06T08:55:51;4.13;;;1.10;;
72369;SDS011;60343;-32.030;115.880;2023-08-06T08:58:27;6.88;;;1.02;;
72369;SDS011;60343;-32.030;115.880;2023-08-06T09:01:01;5.63;;;1.10;;
72369;SDS011;60343;-32.030;115.880;2023-08-06T09:03:37;4.70;;;0.90;;
72369;SDS011;60343;-32.030;115.880;2023-08-06T09:06:12;4.20;;;0.80;;
72369;SDS011;60343;-32.030;115.880;2023-08-06T09:08:54;2.85;;;0.80;;
72369;SDS011;60343;-32.030;115.880;2023-08-06T09:11:35;2.30;;;0.80;;
72369;SDS011;60343;-32.030;115.880;2023-08-06T09:14:15;4.80;;;0.75;;
72369;SDS011;60343;-32.030;115.880;2023-08-06T09:16:50;3.63;;;0.88;;
72369;SDS011;60343;-32.030;115.880;2023-08-06T09:19:25;4.00;;;0.80;;
72369;SDS011;60343;-32.030;115.880;2023-08-06T09:22:00;5.13;;;0.90;;
72369;SDS011;60343;-32.030;115.880;2023-08-06T09:24:44;3.38;;;0.98;;
72369;SDS011;60343;-32.030;115.880;2023-08-06T09:27:19;2.60;;;0.90;;
72369;SDS011;60343;-32.030;115.880;2023-08-06T09:29:55;2.75;;;0.80;;
72369;SDS011;60343;-32.030;115.880;2023-08-06T09:32:34;2.47;;;0.70;;
72369;SDS011;60343;-32.030;115.880;2023-08-06T09:35:19;3.92;;;1.10;;
72369;SDS011;60343;-32.030;115.880;2023-08-06T09:37:54;5.10;;;1.10;;
72369;SDS011;60343;-32.030;115.880;2023-08-06T09:40:34;3.25;;;1.00;;
72369;SDS011;60343;-32.030;115.880;2023-08-06T09:43:09;6.88;;;1.10;;
72369;SDS011;60343;-32.030;115.880;2023-08-06T09:45:46;4.25;;;1.10;;
72369;SDS011;60343;-32.030;115.880;2023-08-06T09:48:20;4.95;;;1.30;;
72369;SDS011;60343;-32.030;115.880;2023-08-06T09:50:59;4.28;;;1.30;;
72369;SDS011;60343;-32.030;115.880;2023-08-06T09:53:35;4.90;;;1.30;;
72369;SDS011;60343;-32.030;115.880;2023-08-06T09:56:16;5.78;;;1.40;;
72369;SDS011;60343;-32.030;115.880;2023-08-06T09:58:52;5.50;;;1.30;;
72369;SDS011;60343;-32.030;115.880;2023-08-06T10:01:28;5.28;;;1.50;;
72369;SDS011;60343;-32.030;115.880;2023-08-06T10:04:03;4.53;;;1.30;;
72369;SDS011;60343;-32.030;115.880;2023-08-06T10:06:42;10.63;;;1.98;;
72369;SDS011;60343;-32.030;115.880;2023-08-06T10:09:19;5.13;;;1.30;;
72369;SDS011;60343;-32.030;115.880;2023-08-06T10:12:01;4.88;;;1.50;;
72369;SDS011;60343;-32.030;115.880;2023-08-06T10:14:35;4.20;;;1.35;;
72369;SDS011;60343;-32.030;115.880;2023-08-06T10:17:12;3.58;;;1.38;;
72369;SDS011;60343;-32.030;115.880;2023-08-06T10:19:46;6.40;;;2.10;;
72369;SDS011;60343;-32.030;115.880;2023-08-06T10:22:22;8.63;;;2.28;;
72369;SDS011;60343;-32.030;115.880;2023-08-06T10:24:57;5.75;;;2.03;;
72369;SDS011;60343;-32.030;115.880;2023-08-06T10:27:39;4.82;;;1.98;;
72369;SDS011;60343;-32.030;115.880;2023-08-06T10:30:25;8.70;;;2.00;;
72369;SDS011;60343;-32.030;115.880;2023-08-06T10:33:01;9.07;;;2.15;;
72369;SDS011;60343;-32.030;115.880;2023-08-06T10:35:37;5.68;;;2.13;;
72369;SDS011;60343;-32.030;115.880;2023-08-06T10:38:19;6.63;;;1.67;;
72369;SDS011;60343;-32.030;115.880;2023-08-06T10:41:31;5.88;;;1.60;;
72369;SDS011;60343;-32.030;115.880;2023-08-06T10:44:18;4.13;;;1.60;;
72369;SDS011;60343;-32.030;115.880;2023-08-06T10:47:26;6.45;;;1.60;;
72369;SDS011;60343;-32.030;115.880;2023-08-06T10:50:01;9.15;;;2.83;;
72369;SDS011;60343;-32.030;115.880;2023-08-06T10:52:38;7.85;;;2.45;;
72369;SDS011;60343;-32.030;115.880;2023-08-06T10:55:13;6.50;;;2.33;;
72369;SDS011;60343;-32.030;115.880;2023-08-06T10:57:55;7.30;;;2.25;;
72369;SDS011;60343;-32.030;115.880;2023-08-06T11:00:36;5.38;;;2.30;;
72369;SDS011;60343;-32.030;115.880;2023-08-06T11:03:11;5.90;;;2.17;;
72369;SDS011;60343;-32.030;115.880;2023-08-06T11:05:48;7.65;;;2.20;;
72369;SDS011;60343;-32.030;115.880;2023-08-06T11:08:26;6.45;;;1.90;;
72369;SDS011;60343;-32.030;115.880;2023-08-06T11:11:08;7.03;;;1.98;;
72369;SDS011;60343;-32.030;115.880;2023-08-06T11:13:44;5.55;;;1.90;;
72369;SDS011;60343;-32.030;115.880;2023-08-06T11:16:24;5.50;;;1.77;;
72369;SDS011;60343;-32.030;115.880;2023-08-06T11:18:59;6.30;;;1.67;;
72369;SDS011;60343;-32.030;115.880;2023-08-06T11:21:34;5.28;;;1.92;;
72369;SDS011;60343;-32.030;115.880;2023-08-06T11:24:10;3.92;;;1.58;;
72369;SDS011;60343;-32.030;115.880;2023-08-06T11:26:44;5.82;;;1.90;;
72369;SDS011;60343;-32.030;115.880;2023-08-06T11:29:19;5.80;;;2.28;;
72369;SDS011;60343;-32.030;115.880;2023-08-06T11:31:59;5.50;;;2.13;;
72369;SDS011;60343;-32.030;115.880;2023-08-06T11:34:37;7.05;;;2.40;;
72369;SDS011;60343;-32.030;115.880;2023-08-06T11:37:13;8.32;;;2.10;;
72369;SDS011;60343;-32.030;115.880;2023-08-06T11:39:48;8.38;;;2.97;;
72369;SDS011;60343;-32.030;115.880;2023-08-06T11:42:26;6.90;;;2.53;;
72369;SDS011;60343;-32.030;115.880;2023-08-06T11:47:49;6.57;;;2.53;;
72369;SDS011;60343;-32.030;115.880;2023-08-06T11:50:24;9.68;;;2.83;;
72369;SDS011;60343;-32.030;115.880;2023-08-06T11:53:00;6.72;;;2.90;;
72369;SDS011;60343;-32.030;115.880;2023-08-06T11:55:35;9.32;;;3.30;;
72369;SDS011;60343;-32.030;115.880;2023-08-06T11:58:10;7.18;;;3.00;;
72369;SDS011;60343;-32.030;115.880;2023-08-06T12:00:45;6.95;;;2.90;;
72369;SDS011;60343;-32.030;115.880;2023-08-06T12:03:26;9.80;;;3.30;;
72369;SDS011;60343;-32.030;115.880;2023-08-06T12:06:02;7.30;;;3.13;;
72369;SDS011;60343;-32.030;115.880;2023-08-06T12:08:36;8.18;;;2.78;;
72369;SDS011;60343;-32.030;115.880;2023-08-06T12:11:11;7.90;;;3.08;;
72369;SDS011;60343;-32.030;115.880;2023-08-06T12:13:50;8.13;;;3.17;;
72369;SDS011;60343;-32.030;115.880;2023-08-06T12:16:25;7.15;;;2.85;;
72369;SDS011;60343;-32.030;115.880;2023-08-06T12:19:08;6.35;;;2.70;;
72369;SDS011;60343;-32.030;115.880;2023-08-06T12:21:42;7.15;;;2.90;;
72369;SDS011;60343;-32.030;115.880;2023-08-06T12:24:17;7.22;;;2.47;;
72369;SDS011;60343;-32.030;115.880;2023-08-06T12:26:51;9.43;;;2.60;;
72369;SDS011;60343;-32.030;115.880;2023-08-06T12:29:28;7.57;;;2.78;;
72369;SDS011;60343;-32.030;115.880;2023-08-06T12:32:03;7.63;;;2.58;;
72369;SDS011;60343;-32.030;115.880;2023-08-06T12:34:44;7.38;;;2.63;;
72369;SDS011;60343;-32.030;115.880;2023-08-06T12:37:18;7.45;;;2.65;;
72369;SDS011;60343;-32.030;115.880;2023-08-06T12:39:53;6.55;;;2.28;;
72369;SDS011;60343;-32.030;115.880;2023-08-06T12:42:27;8.00;;;2.33;;
72369;SDS011;60343;-32.030;115.880;2023-08-06T12:45:02;7.75;;;2.55;;
72369;SDS011;60343;-32.030;115.880;2023-08-06T12:47:37;6.60;;;2.47;;
72369;SDS011;60343;-32.030;115.880;2023-08-06T12:50:17;7.32;;;2.10;;
72369;SDS011;60343;-32.030;115.880;2023-08-06T12:52:52;7.47;;;2.50;;
72369;SDS011;60343;-32.030;115.880;2023-08-06T12:55:26;6.60;;;2.67;;
72369;SDS011;60343;-32.030;115.880;2023-08-06T12:58:03;6.10;;;2.30;;
72369;SDS011;60343;-32.030;115.880;2023-08-06T13:00:38;5.85;;;2.50;;
72369;SDS011;60343;-32.030;115.880;2023-08-06T13:03:12;7.40;;;2.85;;
72369;SDS011;60343;-32.030;115.880;2023-08-06T13:05:53;10.40;;;2.92;;
72369;SDS011;60343;-32.030;115.880;2023-08-06T13:08:27;10.75;;;3.08;;
72369;SDS011;60343;-32.030;115.880;2023-08-06T13:11:02;7.20;;;2.90;;
72369;SDS011;60343;-32.030;115.880;2023-08-06T13:13:36;6.22;;;2.45;;
72369;SDS011;60343;-32.030;115.880;2023-08-06T13:16:11;6.47;;;2.60;;
72369;SDS011;60343;-32.030;115.880;2023-08-06T13:18:45;8.60;;;2.70;;
72369;SDS011;60343;-32.030;115.880;2023-08-06T13:21:30;7.78;;;2.58;;
72369;SDS011;60343;-32.030;115.880;2023-08-06T13:24:06;7.30;;;2.40;;
72369;SDS011;60343;-32.030;115.880;2023-08-06T13:26:43;8.30;;;3.20;;
72369;SDS011;60343;-32.030;115.880;2023-08-06T13:29:17;8.13;;;2.90;;
72369;SDS011;60343;-32.030;115.880;2023-08-06T13:31:57;9.85;;;3.33;;
72369;SDS011;60343;-32.030;115.880;2023-08-06T13:34:31;6.63;;;3.10;;
72369;SDS011;60343;-32.030;115.880;2023-08-06T13:37:12;7.30;;;2.97;;
72369;SDS011;60343;-32.030;115.880;2023-08-06T13:39:46;6.43;;;2.33;;
72369;SDS011;60343;-32.030;115.880;2023-08-06T13:42:21;7.10;;;3.13;;
72369;SDS011;60343;-32.030;115.880;2023-08-06T13:44:56;6.88;;;2.60;;
72369;SDS011;60343;-32.030;115.880;2023-08-06T13:47:30;6.90;;;2.50;;
72369;SDS011;60343;-32.030;115.880;2023-08-06T13:50:05;8.35;;;2.75;;
72369;SDS011;60343;-32.030;115.880;2023-08-06T13:52:45;7.68;;;2.70;;
72369;SDS011;60343;-32.030;115.880;2023-08-06T13:55:22;5.88;;;2.70;;
72369;SDS011;60343;-32.030;115.880;2023-08-06T13:57:57;8.13;;;2.67;;
72369;SDS011;60343;-32.030;115.880;2023-08-06T14:00:31;6.10;;;2.35;;
72369;SDS011;60343;-32.030;115.880;2023-08-06T14:03:06;6.00;;;2.50;;
72369;SDS011;60343;-32.030;115.880;2023-08-06T14:05:41;7.43;;;2.55;;
72369;SDS011;60343;-32.030;115.880;2023-08-06T14:08:25;6.75;;;2.70;;
72369;SDS011;60343;-32.030;115.880;2023-08-06T14:11:00;6.22;;;2.70;;
72369;SDS011;60343;-32.030;115.880;2023-08-06T14:16:11;4.82;;;2.33;;
72369;SDS011;60343;-32.030;115.880;2023-08-06T14:18:46;6.78;;;3.20;;
72369;SDS011;60343;-32.030;115.880;2023-08-06T14:21:22;7.10;;;2.75;;
72369;SDS011;60343;-32.030;115.880;2023-08-06T14:24:03;8.10;;;2.97;;
72369;SDS011;60343;-32.030;115.880;2023-08-06T14:26:38;6.20;;;2.55;;
72369;SDS011;60343;-32.030;115.880;2023-08-06T14:29:13;6.40;;;3.05;;
72369;SDS011;60343;-32.030;115.880;2023-08-06T14:31:49;8.98;;;2.60;;
72369;SDS011;60343;-32.030;115.880;2023-08-06T14:34:25;8.20;;;2.80;;
72369;SDS011;60343;-32.030;115.880;2023-08-06T14:37:04;7.60;;;2.50;;
72369;SDS011;60343;-32.030;115.880;2023-08-06T14:39:45;8.13;;;3.15;;
72369;SDS011;60343;-32.030;115.880;2023-08-06T14:42:20;8.98;;;2.88;;
72369;SDS011;60343;-32.030;115.880;2023-08-06T14:44:54;7.47;;;2.83;;
72369;SDS011;60343;-32.030;115.880;2023-08-06T14:47:30;8.60;;;3.13;;
72369;SDS011;60343;-32.030;115.880;2023-08-06T14:50:04;6.55;;;2.70;;
72369;SDS011;60343;-32.030;115.880;2023-08-06T14:52:42;8.55;;;2.60;;
72369;SDS011;60343;-32.030;115.880;2023-08-06T14:58:14;6.30;;;2.83;;
72369;SDS011;60343;-32.030;115.880;2023-08-06T15:00:48;6.50;;;2.97;;
72369;SDS011;60343;-32.030;115.880;2023-08-06T15:03:23;7.45;;;2.88;;
72369;SDS011;60343;-32.030;115.880;2023-08-06T15:05:57;8.20;;;3.22;;
72369;SDS011;60343;-32.030;115.880;2023-08-06T15:08:32;5.82;;;2.35;;